Terminal Aerodrome Forecast
Issued by NWS Cleveland, OH

Home | Current Version | Previous Version | Text Only | Print | Product List | Glossary Off
Versions: 1 2 3 4 5 6 7 8 9 10 11 12 13 14 15 16 17 18 19 20 21 22 23 24 25 26 27

987
FTUS41 KCLE 232054 AAB
TAFCLE
TAF AMD
KCLE 232054Z 2321/2424 24012KT P6SM BKN015 OVC100
     FM240000 27008KT P6SM OVC025
     FM240300 30008KT P6SM BKN035=

USA.gov is the U.S. government's official web portal to all federal, state and local government web resources and services.